Time;durP1;ratioP1;P1;durP2;ratioP2;P2;SDS_P1;SDS_P2;PMS_P1;PMS_P2;Temp;Humidity;BMP_temperature;BMP_pressure;BME280_temperature;BME280_humidity;BME280_pressure;Samples;Min_cycle;Max_cycle;Signal;HPM_P1;HPM_P2
2022/10/03 00:00:09;;;;;;;5.03;4.00;;;;;;;12.96;68.28;94916.34;5095386;28;20199;-70
2022/10/03 00:02:49;;;;;;;5.72;4.13;;;;;;;12.94;68.22;94908.41;5095371;28;20230;-70
2022/10/03 00:05:27;;;;;;;6.95;4.10;;;;;;;12.88;68.55;94903.56;5096050;28;20616;-70
2022/10/03 00:08:04;;;;;;;5.35;3.72;;;;;;;12.87;69.02;94910.28;5096364;28;20184;-70
2022/10/03 00:10:38;;;;;;;5.70;4.40;;;;;;;12.91;69.06;94909.16;5096119;28;20200;-70
2022/10/03 00:13:17;;;;;;;4.63;3.70;;;;;;;12.88;69.04;94893.28;5096098;28;20205;-70
2022/10/03 00:15:50;;;;;;;4.63;3.58;;;;;;;12.85;68.67;94894.03;5095916;28;20195;-70
2022/10/03 00:18:30;;;;;;;3.42;3.10;;;;;;;12.90;68.53;94881.88;5094698;28;20721;-70
2022/10/03 00:21:10;;;;;;;4.65;3.30;;;;;;;12.86;69.05;94881.81;5095489;28;20230;-70
2022/10/03 00:23:43;;;;;;;3.38;2.95;;;;;;;12.77;69.20;94879.28;5095182;28;20526;-70
2022/10/03 00:26:29;;;;;;;6.75;3.40;;;;;;;12.80;69.20;94876.94;5095025;28;20200;-70
2022/10/03 00:29:25;;;;;;;4.22;2.97;;;;;;;12.80;69.68;94883.28;5094854;28;20207;-70
2022/10/03 00:32:02;;;;;;;5.55;3.53;;;;;;;12.79;69.21;94880.91;5093589;28;20506;-71
2022/10/03 00:34:39;;;;;;;4.78;3.78;;;;;;;12.71;69.62;94883.56;5095958;28;20188;-69
2022/10/03 00:37:20;;;;;;;5.57;4.05;;;;;;;12.70;69.57;94889.44;5094560;28;20236;-71
2022/10/03 00:40:01;;;;;;;6.22;4.38;;;;;;;12.66;69.38;94891.34;5095573;28;20180;-71
2022/10/03 00:43:16;;;;;;;5.97;5.38;;;;;;;12.62;69.82;94891.28;5095490;28;20200;-71
2022/10/03 00:46:21;;;;;;;4.63;4.00;;;;;;;12.67;70.05;94890.19;5095664;28;20188;-71
2022/10/03 00:49:13;;;;;;;5.13;4.15;;;;;;;12.66;70.06;94894.13;5090195;28;20218;-71
2022/10/03 00:51:48;;;;;;;5.65;4.10;;;;;;;12.68;69.67;94895.34;5095324;28;20208;-71
2022/10/03 00:54:38;;;;;;;4.32;3.22;;;;;;;12.62;69.75;94894.06;5095668;28;20211;-71
2022/10/03 00:57:18;;;;;;;3.83;3.20;;;;;;;12.56;69.88;94894.75;5095605;28;20210;-71
2022/10/03 01:00:02;;;;;;;3.72;3.15;;;;;;;12.55;70.04;94888.41;5095512;28;20196;-70
2022/10/03 01:02:37;;;;;;;4.68;3.38;;;;;;;12.55;70.04;94880.13;5095356;28;20199;-70
2022/10/03 01:05:15;;;;;;;5.32;3.55;;;;;;;12.54;70.02;94878.53;5095456;28;20192;-70
2022/10/03 01:08:02;;;;;;;4.53;3.60;;;;;;;12.48;70.19;94880.00;5094410;28;20187;-70
2022/10/03 01:10:35;;;;;;;7.13;3.78;;;;;;;12.47;70.04;94879.19;5094359;28;20200;-71
2022/10/03 01:13:14;;;;;;;4.15;3.42;;;;;;;12.39;70.84;94871.16;5095318;28;20185;-71
2022/10/03 01:15:48;;;;;;;4.60;3.25;;;;;;;12.43;71.22;94866.50;5095237;28;20191;-70
2022/10/03 01:18:22;;;;;;;3.95;3.00;;;;;;;12.48;71.01;94866.16;5094354;28;20215;-70
2022/10/03 01:20:57;;;;;;;5.20;4.30;;;;;;;12.45;70.30;94861.38;5094882;28;20189;-70
2022/10/03 01:23:58;;;;;;;4.63;3.78;;;;;;;12.39;70.49;94860.09;5098317;28;20627;-70
2022/10/03 01:26:41;;;;;;;6.90;4.25;;;;;;;12.34;70.26;94858.41;5099266;28;20264;-71
2022/10/03 01:32:03;;;;;;;5.82;3.40;;;;;;;12.30;70.22;94843.72;5099038;28;20234;-69
2022/10/03 01:34:36;;;;;;;6.53;3.58;;;;;;;12.23;70.51;94855.47;5098282;28;20196;-69
2022/10/03 01:37:10;;;;;;;6.57;3.50;;;;;;;12.20;71.01;94856.22;5098192;28;20228;-69
2022/10/03 01:39:42;;;;;;;4.45;3.38;;;;;;;12.17;70.99;94861.69;5098430;28;20689;-70
2022/10/03 01:42:12;;;;;;;3.53;3.10;;;;;;;12.15;71.07;94861.25;5098114;28;20189;-70
2022/10/03 01:44:52;;;;;;;4.20;3.10;;;;;;;12.08;71.30;94872.19;5098144;28;20272;-69
2022/10/03 01:47:26;;;;;;;4.22;3.28;;;;;;;12.08;71.22;94867.44;5097934;28;20191;-70
2022/10/03 01:50:00;;;;;;;5.45;3.30;;;;;;;12.07;70.99;94857.56;5098075;28;20197;-69
2022/10/03 01:52:36;;;;;;;7.93;3.22;;;;;;;12.09;71.19;94844.19;5098807;28;20280;-69
2022/10/03 01:55:06;;;;;;;4.45;2.92;;;;;;;12.07;71.13;94843.75;5099001;28;20192;-69
2022/10/03 01:57:37;;;;;;;4.50;3.00;;;;;;;12.04;71.38;94853.56;5097729;28;20212;-70
2022/10/03 02:00:09;;;;;;;3.42;3.10;;;;;;;12.06;71.87;94844.13;5098643;28;20181;-70
2022/10/03 02:02:41;;;;;;;3.40;2.60;;;;;;;12.07;71.42;94849.28;5098646;28;20193;-70
2022/10/03 02:05:12;;;;;;;3.25;2.70;;;;;;;12.10;71.52;94845.78;5098155;28;20208;-70
2022/10/03 02:07:44;;;;;;;6.35;3.08;;;;;;;12.03;70.79;94845.66;5098344;28;20257;-70
2022/10/03 02:10:20;;;;;;;3.95;3.03;;;;;;;11.96;70.33;94837.22;5098462;28;20193;-70
2022/10/03 02:12:53;;;;;;;5.15;2.95;;;;;;;11.92;70.69;94830.84;5098202;28;20188;-70
2022/10/03 02:15:26;;;;;;;2.75;2.55;;;;;;;11.89;70.83;94837.09;5097236;28;20628;-70
2022/10/03 02:17:56;;;;;;;3.45;3.10;;;;;;;11.80;71.62;94840.03;5097177;28;20211;-70
2022/10/03 02:20:28;;;;;;;3.80;2.67;;;;;;;11.80;72.04;94831.75;5097130;28;20219;-69
2022/10/03 02:22:56;;;;;;;4.95;3.22;;;;;;;11.78;71.60;94840.44;5096955;28;20612;-69
2022/10/03 02:25:31;;;;;;;3.05;2.83;;;;;;;11.81;72.24;94844.44;5097236;28;20253;-69
2022/10/03 02:28:17;;;;;;;3.67;3.03;;;;;;;11.85;71.81;94836.25;5098144;28;20199;-69
2022/10/03 02:31:01;;;;;;;3.45;2.90;;;;;;;11.89;71.93;94845.38;5097095;28;20188;-70
2022/10/03 02:33:58;;;;;;;4.45;3.28;;;;;;;11.91;71.90;94843.88;5096445;28;20180;-69
2022/10/03 02:36:47;;;;;;;3.30;3.00;;;;;;;11.96;71.73;94843.56;5096813;28;20228;-69
2022/10/03 02:39:49;;;;;;;5.88;3.00;;;;;;;11.93;71.75;94837.97;5097729;28;20265;-69
2022/10/03 02:42:28;;;;;;;3.97;3.20;;;;;;;11.97;71.82;94844.34;5097986;28;20180;-69
2022/10/03 02:45:14;;;;;;;2.95;2.70;;;;;;;11.96;72.04;94840.78;5097104;28;20184;-69
2022/10/03 02:48:14;;;;;;;3.40;3.05;;;;;;;11.91;71.91;94843.88;5097503;28;20193;-69
2022/10/03 02:51:08;;;;;;;5.68;3.42;;;;;;;11.85;71.21;94848.09;5093498;28;20556;-70
2022/10/03 02:54:06;;;;;;;5.88;3.45;;;;;;;11.82;71.22;94851.53;5097427;28;20258;-70
2022/10/03 02:57:02;;;;;;;4.78;4.30;;;;;;;11.80;71.70;94846.41;5096662;28;20193;-69
2022/10/03 03:00:04;;;;;;;5.75;4.78;;;;;;;11.81;71.69;94849.97;5096737;28;20212;-69
2022/10/03 03:03:01;;;;;;;5.53;4.65;;;;;;;11.85;71.46;94850.06;5097531;28;20188;-69
2022/10/03 03:06:10;;;;;;;5.90;4.22;;;;;;;11.85;71.39;94844.53;5096761;28;20200;-69
2022/10/03 03:08:55;;;;;;;4.55;4.15;;;;;;;11.81;71.76;94838.91;5097180;28;20196;-69
2022/10/03 03:11:40;;;;;;;4.80;4.10;;;;;;;11.85;72.08;94839.00;5097341;28;20223;-69
2022/10/03 03:14:40;;;;;;;5.13;3.35;;;;;;;11.85;71.73;94836.25;5096552;28;20197;-69
2022/10/03 03:17:15;;;;;;;4.50;4.10;;;;;;;11.86;71.77;94841.38;5096928;28;20188;-69
2022/10/03 03:19:51;;;;;;;4.70;4.10;;;;;;;11.85;71.78;94842.56;5096850;28;20204;-69
2022/10/03 03:22:34;;;;;;;7.43;4.43;;;;;;;11.80;71.68;94842.81;5096033;28;20217;-69
2022/10/03 03:25:17;;;;;;;4.38;3.97;;;;;;;11.78;72.37;94837.66;5096228;28;20596;-69
2022/10/03 03:27:49;;;;;;;4.20;3.70;;;;;;;11.75;72.19;94835.63;5096379;28;20207;-69
2022/10/03 03:30:18;;;;;;;3.75;2.90;;;;;;;11.70;71.70;94837.91;5097088;28;20180;-69
2022/10/03 03:32:55;;;;;;;3.25;2.95;;;;;;;11.72;71.56;94835.56;5096827;28;20239;-69
2022/10/03 03:35:32;;;;;;;3.55;2.85;;;;;;;11.72;71.28;94830.81;5096521;28;20643;-69
2022/10/03 03:38:07;;;;;;;2.90;2.70;;;;;;;11.75;71.91;94830.09;5097105;28;20188;-70
2022/10/03 03:40:40;;;;;;;3.85;2.65;;;;;;;11.80;71.59;94826.22;5096720;28;20192;-69
2022/10/03 03:43:28;;;;;;;3.63;2.80;;;;;;;11.78;71.79;94823.06;5096878;28;20199;-69
2022/10/03 03:46:14;;;;;;;3.10;2.80;;;;;;;11.81;71.65;94827.84;5096306;28;20191;-69
2022/10/03 03:49:07;;;;;;;3.38;2.95;;;;;;;11.85;71.73;94822.41;5096211;28;20184;-69
2022/10/03 03:51:41;;;;;;;3.55;2.70;;;;;;;11.82;71.58;94827.47;5096359;28;20619;-69
2022/10/03 03:54:40;;;;;;;3.55;2.75;;;;;;;11.78;72.42;94817.53;5096437;28;20249;-70
2022/10/03 03:57:22;;;;;;;3.28;2.90;;;;;;;11.76;72.12;94820.66;5096604;28;20200;-70
2022/10/03 04:00:05;;;;;;;3.80;3.28;;;;;;;11.77;72.11;94818.69;5095392;28;20266;-70
2022/10/03 04:02:51;;;;;;;5.25;3.10;;;;;;;11.74;71.71;94811.13;5096138;28;20212;-69
2022/10/03 04:05:27;;;;;;;3.70;2.95;;;;;;;11.76;71.58;94811.56;5096243;28;20271;-70
2022/10/03 04:08:11;;;;;;;3.58;3.28;;;;;;;11.81;71.70;94808.50;5096119;28;20227;-69
2022/10/03 04:10:47;;;;;;;4.03;3.40;;;;;;;11.78;71.34;94806.47;5095423;28;20232;-69
2022/10/03 04:13:27;;;;;;;4.43;3.20;;;;;;;11.78;71.30;94803.72;5095446;28;20529;-69
2022/10/03 04:16:11;;;;;;;3.60;2.97;;;;;;;11.80;71.11;94809.66;5095215;28;20604;-69
2022/10/03 04:19:02;;;;;;;5.32;3.10;;;;;;;11.80;70.74;94804.13;5095035;28;20227;-69
2022/10/03 04:21:44;;;;;;;4.28;3.17;;;;;;;11.78;71.38;94806.47;5095228;28;20206;-69
2022/10/03 04:24:36;;;;;;;5.15;3.25;;;;;;;11.80;71.63;94801.38;5095907;28;20211;-69
2022/10/03 04:27:24;;;;;;;5.15;3.33;;;;;;;11.80;71.28;94799.44;5095908;28;20200;-69
2022/10/03 04:30:00;;;;;;;4.32;3.20;;;;;;;11.80;71.47;94799.44;5095133;28;20203;-69
2022/10/03 04:32:48;;;;;;;5.30;4.30;;;;;;;11.82;71.85;94808.13;5095548;28;20191;-69
2022/10/03 04:35:59;;;;;;;6.97;4.47;;;;;;;11.80;71.83;94810.47;5093385;28;20211;-68
2022/10/03 04:38:41;;;;;;;4.82;4.05;;;;;;;11.81;71.63;94805.75;5065509;28;20216;-68
2022/10/03 04:41:17;;;;;;;4.60;4.20;;;;;;;11.78;70.97;94804.50;5094519;28;20180;-69
2022/10/03 04:43:51;;;;;;;6.15;4.13;;;;;;;11.77;71.73;94805.69;5095040;28;20183;-69
2022/10/03 04:46:24;;;;;;;7.80;5.00;;;;;;;11.77;72.20;94813.19;5094762;28;20678;-69
2022/10/03 04:48:56;;;;;;;6.70;4.13;;;;;;;11.77;72.29;94802.13;5095599;28;20184;-69
2022/10/03 04:51:32;;;;;;;6.55;4.05;;;;;;;11.82;72.29;94805.38;5094643;28;20200;-69
2022/10/03 04:54:03;;;;;;;10.45;4.80;;;;;;;11.81;72.35;94800.22;5095358;28;20184;-68
2022/10/03 04:56:39;;;;;;;5.13;4.38;;;;;;;11.84;72.20;94794.00;5094672;28;20207;-72
2022/10/03 04:59:21;;;;;;;8.88;5.70;;;;;;;11.87;72.72;94800.72;5095055;28;20704;-69
2022/10/03 05:01:54;;;;;;;9.77;5.47;;;;;;;11.88;72.10;94800.38;5094471;28;20206;-69
2022/10/03 05:04:26;;;;;;;6.45;4.50;;;;;;;11.93;72.14;94796.50;5095407;28;20215;-69
2022/10/03 05:07:01;;;;;;;5.20;3.47;;;;;;;11.95;71.79;94799.72;5094197;28;20271;-69
2022/10/03 05:09:35;;;;;;;3.92;3.55;;;;;;;12.00;71.43;94796.63;5095660;28;20258;-69
2022/10/03 05:12:10;;;;;;;6.15;4.25;;;;;;;12.08;71.66;94803.06;5094562;28;20196;-69
2022/10/03 05:14:49;;;;;;;3.90;3.50;;;;;;;12.10;71.33;94798.00;5094270;28;20208;-69
2022/10/03 05:17:20;;;;;;;9.50;7.55;;;;;;;12.13;71.52;94791.69;5095283;28;20275;-70
2022/10/03 05:19:53;;;;;;;5.93;4.93;;;;;;;12.15;70.90;94797.66;5095209;28;20212;-69
2022/10/03 05:22:32;;;;;;;5.05;4.50;;;;;;;12.18;71.58;94792.19;5095174;28;20642;-69
2022/10/03 05:25:11;;;;;;;6.63;4.05;;;;;;;12.23;71.55;94794.63;5095391;28;20176;-69
2022/10/03 05:27:42;;;;;;;6.90;5.35;;;;;;;12.23;71.57;94808.47;5094939;28;20184;-69
2022/10/03 05:30:16;;;;;;;9.05;5.68;;;;;;;12.23;71.34;94791.88;5095175;28;20177;-69
2022/10/03 05:32:47;;;;;;;6.75;4.82;;;;;;;12.25;71.65;94781.25;5094962;28;20181;-69
2022/10/03 05:35:25;;;;;;;7.45;5.20;;;;;;;12.25;71.46;94770.19;5094986;28;20197;-69
2022/10/03 05:38:27;;;;;;;5.82;4.32;;;;;;;12.26;70.84;94777.31;5094516;28;20234;-69
2022/10/03 05:41:02;;;;;;;5.47;4.95;;;;;;;12.27;70.77;94764.28;5093673;28;20212;-69
2022/10/03 05:43:44;;;;;;;7.85;7.05;;;;;;;12.28;71.00;94765.91;5095071;28;20180;-69
2022/10/03 05:46:21;;;;;;;9.82;8.57;;;;;;;12.31;71.20;94778.97;5095358;28;20258;-69
2022/10/03 05:48:51;;;;;;;10.15;9.05;;;;;;;12.33;71.65;94782.16;5094652;28;20176;-70
2022/10/03 05:51:50;;;;;;;12.98;9.85;;;;;;;12.35;71.43;94779.03;5094979;28;20188;-69
2022/10/03 05:54:44;;;;;;;11.15;9.73;;;;;;;12.37;71.00;94782.22;5094871;28;20565;-70
2022/10/03 05:57:59;;;;;;;10.40;9.38;;;;;;;12.39;71.74;94785.44;5094755;28;20279;-71
2022/10/03 06:00:34;;;;;;;10.90;9.43;;;;;;;12.42;71.51;94787.44;5032852;28;20215;-69
2022/10/03 06:03:40;;;;;;;12.40;10.60;;;;;;;12.45;70.72;94797.75;5079257;28;20208;-69
2022/10/03 06:06:25;;;;;;;13.00;11.85;;;;;;;12.46;70.91;94796.59;5060546;28;20208;-70
2022/10/03 06:09:26;;;;;;;16.33;14.75;;;;;;;12.44;71.28;94808.03;5094540;28;20208;-70
2022/10/03 06:12:04;;;;;;;14.60;13.27;;;;;;;12.44;71.51;94805.25;5064700;28;20216;-70
2022/10/03 06:15:02;;;;;;;14.80;13.40;;;;;;;12.46;70.74;94805.69;5098387;28;20189;-70
2022/10/03 06:17:41;;;;;;;17.45;15.60;;;;;;;12.52;70.96;94809.72;5097492;28;20285;-69
2022/10/03 06:20:22;;;;;;;15.63;14.00;;;;;;;12.57;70.77;94811.41;5097342;28;20212;-69
2022/10/03 06:23:12;;;;;;;14.88;13.07;;;;;;;12.63;70.55;94818.19;5098210;28;20239;-70
2022/10/03 06:26:13;;;;;;;15.45;11.50;;;;;;;12.66;70.23;94811.13;5098107;28;20262;-70
2022/10/03 06:29:11;;;;;;;14.50;12.05;;;;;;;12.60;71.02;94807.88;5095788;28;20212;-70
2022/10/03 06:31:57;;;;;;;13.55;11.13;;;;;;;12.66;71.20;94805.59;5097474;28;20206;-70
2022/10/03 06:35:03;;;;;;;13.93;12.40;;;;;;;12.72;71.58;94802.13;5097432;28;20204;-70
2022/10/03 06:38:02;;;;;;;12.20;10.80;;;;;;;12.78;71.48;94797.06;5036008;28;20206;-70
2022/10/03 06:40:55;;;;;;;15.15;11.77;;;;;;;12.86;71.58;94801.53;5093429;28;20223;-70
2022/10/03 06:43:55;;;;;;;13.85;11.10;;;;;;;12.93;71.41;94809.16;5097930;28;20184;-70
2022/10/03 06:47:05;;;;;;;13.68;12.23;;;;;;;13.00;71.38;94806.47;5089480;28;20214;-70
2022/10/03 06:50:04;;;;;;;10.40;9.23;;;;;;;13.02;71.49;94802.16;5019242;28;20221;-70
2022/10/03 06:53:25;;;;;;;7.78;6.93;;;;;;;13.05;71.41;94811.69;5035580;28;20208;-70
2022/10/03 06:56:18;;;;;;;11.95;8.60;;;;;;;13.07;71.54;94816.84;5029015;28;20600;-69
2022/10/03 06:59:20;;;;;;;9.75;7.30;;;;;;;13.10;71.90;94827.16;5096786;28;20223;-69
2022/10/03 07:02:12;;;;;;;6.03;3.85;;;;;;;13.09;70.77;94825.56;5080929;28;20219;-69
2022/10/03 07:05:02;;;;;;;4.60;3.47;;;;;;;13.06;70.54;94840.16;5096834;28;20192;-69
2022/10/03 07:08:02;;;;;;;5.53;4.30;;;;;;;13.06;70.93;94849.25;5097445;28;20188;-72
2022/10/03 07:11:03;;;;;;;8.30;5.03;;;;;;;13.07;71.50;94858.34;5097098;28;20192;-71
2022/10/03 07:13:58;;;;;;;10.27;5.72;;;;;;;13.05;71.00;94869.81;5082180;28;20216;-70
2022/10/03 07:16:51;;;;;;;8.00;5.10;;;;;;;13.02;71.59;94881.63;5092775;28;20208;-70
2022/10/03 07:19:39;;;;;;;9.43;5.05;;;;;;;13.00;72.42;94890.31;5058454;28;20212;-72
2022/10/03 07:22:41;;;;;;;5.47;4.43;;;;;;;12.93;72.66;94898.53;5097104;28;20250;-71
2022/10/03 07:25:44;;;;;;;7.10;4.88;;;;;;;12.85;73.34;94896.78;5096839;28;20195;-71
2022/10/03 07:28:48;;;;;;;6.72;4.40;;;;;;;12.80;73.72;94918.47;5095953;28;20607;-72
2022/10/03 07:31:21;;;;;;;10.13;5.32;;;;;;;12.75;73.86;94903.78;5097412;28;20188;-70
2022/10/03 07:34:24;;;;;;;6.95;5.63;;;;;;;12.74;74.48;94901.38;5096437;28;20261;-71
2022/10/03 07:40:19;;;;;;;6.00;4.00;;;;;;;12.68;74.37;94908.41;5095732;28;20204;-70
2022/10/03 07:42:59;;;;;;;5.32;3.92;;;;;;;12.64;74.53;94915.84;5095917;28;20189;-71
2022/10/03 07:45:34;;;;;;;4.38;3.97;;;;;;;12.64;75.09;94918.63;5096895;28;20180;-73
2022/10/03 07:48:37;;;;;;;5.47;3.80;;;;;;;12.70;75.87;94928.19;5096760;28;20184;-73
2022/10/03 07:51:26;;;;;;;5.03;3.85;;;;;;;12.76;76.33;94929.47;5095550;28;20200;-72
2022/10/03 07:54:19;;;;;;;5.13;4.03;;;;;;;12.79;76.24;94923.22;5088602;28;20666;-71
2022/10/03 07:57:27;;;;;;;7.07;3.80;;;;;;;12.80;76.21;94913.72;5096200;28;20589;-72
2022/10/03 08:00:21;;;;;;;6.50;3.65;;;;;;;12.83;76.61;94923.25;5096074;28;20228;-72
2022/10/03 08:03:29;;;;;;;5.40;4.15;;;;;;;12.83;77.28;94914.97;5096491;28;20185;-71
2022/10/03 08:06:14;;;;;;;6.50;4.82;;;;;;;12.83;77.85;94917.72;5047503;28;20208;-72
2022/10/03 08:08:59;;;;;;;5.47;4.50;;;;;;;12.84;77.94;94922.88;5095575;28;20328;-71
2022/10/03 08:11:50;;;;;;;4.28;3.50;;;;;;;12.97;77.72;94915.19;5096485;28;20196;-71
2022/10/03 08:14:19;;;;;;;5.80;2.90;;;;;;;13.10;76.95;94922.09;5059048;28;20204;-71
2022/10/03 08:17:10;;;;;;;6.55;3.42;;;;;;;13.22;76.36;94916.38;5094923;28;20200;-72
2022/10/03 08:20:10;;;;;;;4.63;3.05;;;;;;;13.33;75.63;94924.06;5094937;28;20204;-70
2022/10/03 08:22:44;;;;;;;4.72;2.83;;;;;;;13.39;75.54;94931.66;5095964;28;20196;-70
2022/10/03 08:25:27;;;;;;;3.85;3.30;;;;;;;13.39;75.66;94930.84;5096125;28;20195;-71
2022/10/03 08:28:22;;;;;;;4.32;3.03;;;;;;;13.38;75.63;94932.03;5095747;28;20245;-72
2022/10/03 08:31:14;;;;;;;5.05;2.60;;;;;;;13.38;75.73;94934.81;5094760;28;20197;-72
2022/10/03 08:34:03;;;;;;;4.68;3.00;;;;;;;13.40;75.93;94933.28;5091438;28;20196;-71
2022/10/03 08:37:04;;;;;;;4.63;2.60;;;;;;;13.42;76.48;94942.00;5094666;28;20261;-71
2022/10/03 08:39:46;;;;;;;4.00;3.28;;;;;;;13.42;76.89;94933.69;5091556;28;20624;-73
2022/10/03 08:42:45;;;;;;;3.75;2.80;;;;;;;13.45;76.40;94937.69;5095029;28;20210;-71
2022/10/03 08:45:52;;;;;;;3.80;2.50;;;;;;;13.45;75.65;94935.69;5069737;28;20223;-71
2022/10/03 08:48:40;;;;;;;3.25;2.60;;;;;;;13.49;75.26;94941.28;5070067;28;20204;-71
2022/10/03 08:51:40;;;;;;;3.20;2.97;;;;;;;13.53;75.23;94941.34;5095341;28;20242;-71
2022/10/03 08:54:51;;;;;;;4.53;3.17;;;;;;;13.60;75.19;94941.44;5069932;28;20254;-69
2022/10/03 08:57:45;;;;;;;3.95;3.35;;;;;;;13.66;75.27;94937.97;5088502;28;20216;-69
2022/10/03 09:00:16;;;;;;;2.53;2.33;;;;;;;13.70;75.04;94940.78;5077864;28;20226;-70
2022/10/03 09:03:27;;;;;;;3.67;2.40;;;;;;;13.74;75.02;94947.19;5095318;28;20180;-69
2022/10/03 09:06:23;;;;;;;2.78;2.30;;;;;;;13.77;75.30;94948.41;5057272;28;20302;-70
2022/10/03 09:09:10;;;;;;;3.72;2.80;;;;;;;13.80;75.95;94951.22;5094521;28;20694;-69
2022/10/03 09:11:51;;;;;;;2.33;2.10;;;;;;;13.80;75.65;94959.53;5095466;28;20196;-70
2022/10/03 09:14:47;;;;;;;2.40;2.20;;;;;;;13.79;75.26;94954.34;5095305;28;20200;-70
2022/10/03 09:17:45;;;;;;;2.50;2.30;;;;;;;13.78;75.64;94955.53;5093460;28;20666;-70
2022/10/03 09:20:25;;;;;;;3.00;2.70;;;;;;;13.77;75.62;94956.72;5095478;28;20208;-70
2022/10/03 09:23:03;;;;;;;2.60;2.40;;;;;;;13.78;75.71;94961.09;5095081;28;20542;-70
2022/10/03 09:25:44;;;;;;;2.67;2.10;;;;;;;13.78;75.52;94959.09;5094238;28;20550;-70
2022/10/03 09:28:47;;;;;;;3.38;2.33;;;;;;;13.78;75.17;94966.63;5094484;28;20257;-70
2022/10/03 09:31:25;;;;;;;3.25;2.90;;;;;;;13.79;75.33;94952.38;5094405;28;20227;-70
2022/10/03 09:34:24;;;;;;;2.83;2.63;;;;;;;13.82;75.41;94950.84;5094960;28;20246;-70
2022/10/03 09:37:14;;;;;;;2.78;2.58;;;;;;;13.85;75.64;94955.63;5090917;28;20243;-70
2022/10/03 09:40:17;;;;;;;3.10;2.50;;;;;;;13.91;75.57;94954.13;5095230;28;20196;-70
2022/10/03 09:43:02;;;;;;;5.50;3.15;;;;;;;13.94;75.46;94953.34;5095337;28;20200;-70
2022/10/03 09:46:00;;;;;;;2.90;2.70;;;;;;;13.93;75.20;94955.34;5098761;28;20604;-70
2022/10/03 09:49:08;;;;;;;3.78;2.78;;;;;;;13.93;74.49;94952.56;5029236;28;20223;-70
2022/10/03 09:51:43;;;;;;;2.78;2.58;;;;;;;13.93;72.78;94963.66;5081915;28;20208;-70
2022/10/03 09:54:27;;;;;;;2.38;2.17;;;;;;;13.96;73.13;94954.59;5099084;28;20184;-70
2022/10/03 09:57:41;;;;;;;2.83;2.63;;;;;;;14.01;72.94;94960.97;5097971;28;20200;-70
2022/10/03 10:00:21;;;;;;;3.10;2.75;;;;;;;14.05;72.21;94962.63;5056262;28;20543;-69
2022/10/03 10:03:18;;;;;;;3.80;2.55;;;;;;;14.09;71.40;94959.88;5098760;28;20204;-69
2022/10/03 10:06:34;;;;;;;2.45;2.25;;;;;;;14.08;70.17;94950.75;5098850;28;20192;-69
2022/10/03 10:09:41;;;;;;;2.10;2.00;;;;;;;14.07;68.90;94946.41;5098492;28;20573;-69
2022/10/03 10:12:46;;;;;;;2.70;2.42;;;;;;;14.08;69.12;94941.63;5097875;28;20196;-70
2022/10/03 10:15:51;;;;;;;2.30;2.20;;;;;;;14.09;68.78;94929.38;5097910;28;20192;-69
2022/10/03 10:18:34;;;;;;;2.17;2.00;;;;;;;14.10;68.51;94944.84;5007955;28;20214;-70
2022/10/03 10:21:52;;;;;;;3.22;2.92;;;;;;;14.11;67.70;94943.66;5098579;28;20217;-70
2022/10/03 10:24:50;;;;;;;2.20;2.10;;;;;;;14.11;67.74;94938.13;5097574;28;20228;-69
2022/10/03 10:27:53;;;;;;;1.60;1.50;;;;;;;14.14;66.43;94940.94;5098336;28;20515;-69
2022/10/03 10:30:23;;;;;;;1.80;1.70;;;;;;;14.13;66.10;94942.13;5097477;28;20199;-69
2022/10/03 10:33:49;;;;;;;2.08;1.98;;;;;;;14.17;66.29;94940.19;5097868;28;20185;-70
2022/10/03 10:37:04;;;;;;;2.00;1.60;;;;;;;14.20;66.44;94944.97;4985719;28;20312;-70
2022/10/03 10:39:55;;;;;;;1.70;1.60;;;;;;;14.21;64.89;94951.31;5036291;28;20307;-69
2022/10/03 10:43:05;;;;;;;2.10;1.95;;;;;;;14.22;66.00;94950.13;5097928;28;20212;-69
2022/10/03 10:45:46;;;;;;;1.90;1.80;;;;;;;14.23;65.29;94959.25;5096312;28;20214;-69
2022/10/03 10:49:03;;;;;;;2.67;1.60;;;;;;;14.23;65.32;94953.69;5097743;28;20233;-69
2022/10/03 10:51:50;;;;;;;2.03;1.92;;;;;;;14.27;65.83;94962.84;5096716;28;20632;-69
2022/10/03 10:54:40;;;;;;;1.70;1.60;;;;;;;14.31;65.21;94952.63;5086316;28;20212;-70
2022/10/03 10:57:17;;;;;;;1.60;1.50;;;;;;;14.36;65.08;94972.47;5097816;28;20202;-69
2022/10/03 11:00:16;;;;;;;1.75;1.65;;;;;;;14.45;65.54;94956.34;5097812;28;20192;-69
2022/10/03 11:03:17;;;;;;;1.90;1.80;;;;;;;14.51;64.33;94948.47;5096650;28;20200;-69
2022/10/03 11:06:12;;;;;;;3.13;2.30;;;;;;;14.65;65.71;94956.16;5096646;28;20209;-69
2022/10/03 11:09:01;;;;;;;3.00;2.80;;;;;;;14.74;64.81;94948.31;5097463;28;20192;-72
2022/10/03 11:12:05;;;;;;;2.95;2.42;;;;;;;14.82;64.64;94944.44;5097761;28;20184;-74
2022/10/03 11:15:16;;;;;;;2.92;2.72;;;;;;;14.82;64.54;94955.53;5096542;28;20192;-73
2022/10/03 11:18:09;;;;;;;2.42;2.33;;;;;;;14.76;63.91;94959.84;5096950;28;20241;-72
2022/10/03 11:21:15;;;;;;;2.53;2.33;;;;;;;14.65;63.46;94970.03;5096242;28;20211;-71
2022/10/03 11:24:07;;;;;;;2.28;2.17;;;;;;;14.56;63.60;94958.44;5080325;28;20265;-73
2022/10/03 11:27:10;;;;;;;2.42;2.33;;;;;;;14.50;64.22;94960.78;5096151;28;20222;-72
2022/10/03 11:30:16;;;;;;;3.05;2.88;;;;;;;14.47;64.24;94967.06;5096853;28;20192;-73
2022/10/03 11:33:20;;;;;;;2.88;2.67;;;;;;;14.50;64.21;94946.91;5096269;28;20203;-71
2022/10/03 11:36:31;;;;;;;3.40;3.20;;;;;;;14.52;64.34;94946.50;5096243;28;20293;-72
2022/10/03 11:39:03;;;;;;;3.45;3.03;;;;;;;14.52;63.99;94949.28;5097184;28;20189;-72
2022/10/03 11:41:40;;;;;;;3.45;3.25;;;;;;;14.49;63.31;94947.22;5096168;28;20212;-72
2022/10/03 11:44:17;;;;;;;3.80;3.50;;;;;;;14.48;64.32;94946.44;5096938;28;20223;-71
2022/10/03 11:46:51;;;;;;;3.17;2.92;;;;;;;14.57;64.40;94938.63;5095808;28;20196;-71
2022/10/03 11:49:42;;;;;;;3.40;3.20;;;;;;;14.62;63.69;94948.59;5097223;28;20275;-71
2022/10/03 11:52:26;;;;;;;3.22;3.03;;;;;;;14.56;63.41;94942.59;5096761;28;20189;-71
2022/10/03 11:55:08;;;;;;;2.85;2.65;;;;;;;14.54;63.79;94933.84;5095667;28;20253;-70
2022/10/03 11:57:37;;;;;;;3.28;3.00;;;;;;;14.51;63.56;94939.38;5096243;28;20528;-73
2022/10/03 12:00:05;;;;;;;3.47;3.17;;;;;;;14.47;62.86;94927.41;5096453;28;20189;-70
2022/10/03 12:03:09;;;;;;;3.47;3.28;;;;;;;14.47;62.71;94921.84;5096413;28;20204;-73
2022/10/03 12:05:48;;;;;;;3.60;3.30;;;;;;;14.46;62.76;94921.06;5095889;28;20631;-68
2022/10/03 12:11:12;;;;;;;4.30;3.55;;;;;;;14.48;62.27;94929.00;5095706;28;20281;-69
2022/10/03 12:13:45;;;;;;;4.40;4.10;;;;;;;14.49;62.65;94933.34;5095192;28;20211;-69
2022/10/03 12:16:19;;;;;;;4.40;4.00;;;;;;;14.54;62.71;94924.72;5095487;28;20197;-69
2022/10/03 12:18:52;;;;;;;3.95;3.65;;;;;;;14.62;62.75;94929.16;5095267;28;20218;-68
2022/10/03 12:21:22;;;;;;;4.25;3.95;;;;;;;14.74;61.50;94928.88;5096069;28;20212;-69
2022/10/03 12:24:06;;;;;;;4.07;3.78;;;;;;;14.86;59.94;94925.03;5095653;28;20188;-68
2022/10/03 12:26:48;;;;;;;4.43;4.13;;;;;;;14.99;59.13;94926.31;5096081;28;20176;-68
2022/10/03 12:29:18;;;;;;;4.30;4.00;;;;;;;15.11;57.85;94923.25;5095978;28;20177;-68
2022/10/03 12:31:51;;;;;;;3.63;3.33;;;;;;;15.21;57.12;94927.25;5095995;28;20173;-68
2022/10/03 12:34:33;;;;;;;4.55;3.70;;;;;;;15.31;55.56;94923.75;5094979;28;20211;-69
2022/10/03 12:37:22;;;;;;;4.30;3.90;;;;;;;15.35;55.44;94907.91;5096470;28;20235;-69
2022/10/03 12:40:01;;;;;;;3.63;3.42;;;;;;;15.48;56.03;94908.41;5095796;28;20192;-68
2022/10/03 12:42:30;;;;;;;3.45;3.22;;;;;;;15.58;55.66;94913.22;5095375;28;20301;-68
2022/10/03 12:44:59;;;;;;;3.67;3.38;;;;;;;15.67;55.48;94914.88;5095794;28;20193;-68
2022/10/03 12:47:35;;;;;;;3.90;3.60;;;;;;;15.80;56.31;94916.16;5095719;28;20257;-68
2022/10/03 12:50:11;;;;;;;4.00;3.80;;;;;;;15.94;53.56;94912.59;5094481;28;20192;-68
2022/10/03 12:52:45;;;;;;;4.60;4.20;;;;;;;16.00;53.57;94902.72;5095644;28;20264;-69
2022/10/03 12:55:25;;;;;;;4.57;4.18;;;;;;;16.07;52.29;94925.00;5095377;28;20237;-69
2022/10/03 12:57:57;;;;;;;4.43;4.13;;;;;;;16.08;51.75;94907.88;5095747;28;20199;-69
2022/10/03 13:00:27;;;;;;;3.97;3.78;;;;;;;16.08;52.63;94916.25;5095240;28;20185;-69
2022/10/03 13:03:10;;;;;;;4.22;3.92;;;;;;;16.11;51.32;94914.66;5094172;28;20217;-69
2022/10/03 13:05:54;;;;;;;4.55;3.92;;;;;;;16.18;51.70;94909.13;5094605;28;20196;-68
2022/10/03 13:08:36;;;;;;;4.28;3.90;;;;;;;16.27;51.39;94912.34;5094750;28;20199;-68